createdAt,value
2017-10-26T00:02:10.717Z,12.90
2017-10-26T00:04:36.875Z,12.90
2017-10-26T00:07:03.085Z,12.90
2017-10-26T00:09:29.260Z,12.80
2017-10-26T00:11:58.834Z,12.70
2017-10-26T00:14:25.142Z,12.70
2017-10-26T00:16:51.474Z,12.70
2017-10-26T00:19:17.647Z,12.60
2017-10-26T00:21:43.846Z,12.60
2017-10-26T00:24:09.998Z,12.50
2017-10-26T00:26:36.495Z,12.50
2017-10-26T00:29:03.024Z,12.60
2017-10-26T00:31:29.190Z,12.60
2017-10-26T00:33:56.146Z,12.60
2017-10-26T00:36:22.363Z,12.60
2017-10-26T00:38:48.965Z,12.50
2017-10-26T00:41:15.171Z,12.70
2017-10-26T00:43:41.378Z,12.70
2017-10-26T00:46:07.578Z,12.80
2017-10-26T00:48:33.842Z,12.80
2017-10-26T00:51:00.082Z,12.80
2017-10-26T00:53:26.276Z,12.80
2017-10-26T00:55:52.499Z,12.80
2017-10-26T00:58:18.684Z,12.80
2017-10-26T01:00:44.897Z,12.70
2017-10-26T01:03:11.076Z,12.70
2017-10-26T01:05:37.350Z,12.70
2017-10-26T01:08:03.514Z,12.60
2017-10-26T01:10:29.733Z,12.50
2017-10-26T01:12:56.719Z,12.60
2017-10-26T01:15:22.910Z,12.60
2017-10-26T01:17:49.062Z,12.60
2017-10-26T01:20:15.323Z,12.40
2017-10-26T01:22:41.666Z,12.40
2017-10-26T01:25:07.871Z,12.50
2017-10-26T01:27:34.094Z,12.50
2017-10-26T01:30:00.325Z,12.50
2017-10-26T01:32:27.267Z,12.50
2017-10-26T01:34:53.602Z,12.50
2017-10-26T01:37:19.781Z,12.40
2017-10-26T01:39:46.005Z,12.30
2017-10-26T01:42:12.207Z,12.20
2017-10-26T01:44:38.483Z,12.20
2017-10-26T01:47:05.228Z,12.20
2017-10-26T01:49:32.184Z,12.10
2017-10-26T01:51:58.752Z,12.00
2017-10-26T01:54:25.006Z,12.10
2017-10-26T01:56:51.210Z,12.10
2017-10-26T01:59:18.178Z,12.10
2017-10-26T02:01:44.423Z,12.00
2017-10-26T02:04:10.594Z,12.00
2017-10-26T02:06:36.782Z,12.10
2017-10-26T02:09:02.971Z,12.20
2017-10-26T02:11:29.183Z,12.20
2017-10-26T02:13:55.415Z,12.20
2017-10-26T02:16:21.998Z,12.20
2017-10-26T02:18:48.292Z,12.20
2017-10-26T02:21:14.892Z,12.10
2017-10-26T02:23:41.122Z,12.10
2017-10-26T02:26:07.316Z,12.10
2017-10-26T02:28:45.623Z,12.00
2017-10-26T02:31:23.872Z,12.00
2017-10-26T02:33:50.028Z,12.00
2017-10-26T02:36:16.206Z,12.00
2017-10-26T02:38:42.427Z,12.10
2017-10-26T02:41:08.611Z,12.00
2017-10-26T02:43:34.790Z,11.90
2017-10-26T02:46:01.014Z,11.90
2017-10-26T02:48:27.212Z,12.00
2017-10-26T02:50:53.415Z,12.00
2017-10-26T02:53:19.645Z,12.00
2017-10-26T02:55:45.803Z,12.00
2017-10-26T02:58:12.009Z,11.90
2017-10-26T03:00:38.270Z,11.90
2017-10-26T03:03:04.527Z,11.80
2017-10-26T03:05:30.730Z,11.80
2017-10-26T03:07:56.965Z,11.70
2017-10-26T03:10:23.124Z,11.70
2017-10-26T03:12:49.318Z,11.60
2017-10-26T03:15:15.522Z,11.60
2017-10-26T03:17:41.682Z,11.60
2017-10-26T03:20:07.907Z,11.60
2017-10-26T03:22:34.067Z,11.70
2017-10-26T03:25:00.292Z,11.70
2017-10-26T03:27:26.445Z,11.80
2017-10-26T03:29:53.003Z,11.60
2017-10-26T03:32:19.550Z,11.50
2017-10-26T03:34:45.757Z,11.50
2017-10-26T03:37:11.978Z,11.40
2017-10-26T03:39:38.165Z,12.30
2017-10-26T03:42:04.344Z,11.40
2017-10-26T03:44:30.545Z,11.50
2017-10-26T03:46:56.719Z,11.50
2017-10-26T03:49:22.912Z,11.50
2017-10-26T03:51:49.471Z,11.30
2017-10-26T03:54:15.636Z,11.30
2017-10-26T03:56:41.846Z,11.40
2017-10-26T03:59:08.794Z,11.40
2017-10-26T04:01:35.027Z,11.30
2017-10-26T04:04:01.239Z,11.30
2017-10-26T04:06:27.432Z,11.40
2017-10-26T04:08:54.562Z,11.40
2017-10-26T04:11:20.792Z,11.30
2017-10-26T04:13:47.713Z,11.30
2017-10-26T04:16:13.858Z,11.40
2017-10-26T04:18:40.085Z,10.40
2017-10-26T04:21:06.274Z,11.60
2017-10-26T04:23:32.464Z,11.60
2017-10-26T04:25:58.677Z,11.50
2017-10-26T04:28:24.874Z,11.50
2017-10-26T04:30:53.251Z,11.50
2017-10-26T04:33:19.855Z,11.50
2017-10-26T04:35:46.630Z,11.50
2017-10-26T04:38:12.909Z,11.40
2017-10-26T04:40:39.124Z,11.50
2017-10-26T04:43:05.353Z,11.40
2017-10-26T04:45:31.969Z,11.40
2017-10-26T04:47:58.174Z,11.40
2017-10-26T04:50:24.756Z,11.30
2017-10-26T04:52:51.713Z,11.20
2017-10-26T04:55:17.904Z,11.20
2017-10-26T04:57:44.067Z,11.20
2017-10-26T05:00:10.200Z,11.10
2017-10-26T05:02:36.840Z,11.10
2017-10-26T05:05:03.028Z,11.10
2017-10-26T05:07:29.203Z,11.20
2017-10-26T05:09:56.144Z,11.20
2017-10-26T05:12:22.349Z,11.20
2017-10-26T05:14:50.232Z,11.10
2017-10-26T05:17:18.669Z,11.10
2017-10-26T05:19:45.379Z,11.20
2017-10-26T05:22:11.931Z,11.10
2017-10-26T05:24:38.478Z,11.00
2017-10-26T05:27:04.673Z,11.00
2017-10-26T05:29:30.862Z,11.10
2017-10-26T05:31:57.037Z,11.10
2017-10-26T05:34:23.633Z,11.10
2017-10-26T05:36:49.866Z,11.10
2017-10-26T05:39:16.080Z,11.20
2017-10-26T05:41:42.277Z,11.30
2017-10-26T05:44:08.560Z,11.30
2017-10-26T05:46:34.828Z,11.20
2017-10-26T05:49:02.574Z,11.20
2017-10-26T05:51:28.833Z,11.20
2017-10-26T05:53:55.071Z,10.50
2017-10-26T05:56:21.300Z,11.00
2017-10-26T05:58:48.306Z,10.90
2017-10-26T06:01:14.567Z,10.90
2017-10-26T06:03:40.764Z,11.00
2017-10-26T06:06:07.013Z,11.00
2017-10-26T06:08:33.302Z,11.00
2017-10-26T06:10:59.532Z,11.00
2017-10-26T06:13:25.783Z,11.00
2017-10-26T06:15:52.747Z,11.00
2017-10-26T06:18:19.662Z,11.00
2017-10-26T06:20:46.179Z,11.10
2017-10-26T06:23:12.369Z,11.10
2017-10-26T06:25:38.552Z,11.10
2017-10-26T06:28:04.710Z,11.10
2017-10-26T06:30:30.928Z,11.10
2017-10-26T06:32:57.102Z,11.10
2017-10-26T06:35:23.804Z,11.10
2017-10-26T06:37:49.988Z,11.10
2017-10-26T06:40:16.204Z,11.20
2017-10-26T06:42:43.202Z,11.30
2017-10-26T06:45:09.412Z,11.40
2017-10-26T06:47:35.620Z,11.50
2017-10-26T06:50:01.822Z,11.60
2017-10-26T06:52:28.063Z,11.80
2017-10-26T06:54:54.272Z,11.90
2017-10-26T06:57:21.197Z,11.90
2017-10-26T06:59:47.449Z,12.10
2017-10-26T07:02:13.735Z,12.10
2017-10-26T07:04:40.646Z,12.30
2017-10-26T07:07:06.870Z,12.30
2017-10-26T07:09:33.108Z,12.40
2017-10-26T07:11:59.691Z,12.50
2017-10-26T07:14:25.871Z,12.50
2017-10-26T07:16:52.036Z,12.60
2017-10-26T07:19:18.306Z,12.60
2017-10-26T07:21:45.266Z,12.60
2017-10-26T07:24:11.462Z,12.60
2017-10-26T07:26:37.659Z,12.50
2017-10-26T07:29:03.802Z,12.50
2017-10-26T07:31:29.971Z,12.50
2017-10-26T07:33:56.151Z,12.50
2017-10-26T07:36:22.333Z,12.50
2017-10-26T07:38:48.548Z,12.60
2017-10-26T07:41:14.791Z,12.70
2017-10-26T07:43:41.015Z,12.70
2017-10-26T07:46:07.245Z,12.80
2017-10-26T07:48:33.497Z,12.90
2017-10-26T07:50:59.659Z,12.90
2017-10-26T07:53:25.902Z,12.70
2017-10-26T07:55:52.081Z,12.80
2017-10-26T07:58:18.266Z,12.90
2017-10-26T08:00:44.511Z,12.80
2017-10-26T08:03:10.704Z,12.90
2017-10-26T08:05:36.942Z,12.80
2017-10-26T08:08:03.115Z,12.80
2017-10-26T08:10:29.372Z,13.00
2017-10-26T08:12:55.616Z,13.00
2017-10-26T08:15:21.827Z,13.10
2017-10-26T08:17:48.059Z,13.10
2017-10-26T08:20:14.264Z,13.10
2017-10-26T08:22:40.510Z,12.90
2017-10-26T08:25:06.678Z,12.90
2017-10-26T08:27:33.262Z,13.10
2017-10-26T08:29:59.490Z,13.20
2017-10-26T08:32:25.772Z,13.30
2017-10-26T08:34:52.362Z,13.60
2017-10-26T08:37:18.551Z,14.10
2017-10-26T08:39:45.158Z,14.40
2017-10-26T08:42:11.322Z,14.60
2017-10-26T08:44:37.525Z,14.90
2017-10-26T08:47:04.450Z,15.30
2017-10-26T08:49:30.667Z,15.60
2017-10-26T08:51:56.966Z,16.00
2017-10-26T08:54:23.437Z,16.30
2017-10-26T08:56:50.067Z,16.50
2017-10-26T08:59:17.064Z,16.60
2017-10-26T09:01:43.292Z,16.90
2017-10-26T09:04:09.486Z,17.30
2017-10-26T09:06:36.064Z,17.30
2017-10-26T09:09:02.307Z,17.20
2017-10-26T09:11:28.530Z,17.00
2017-10-26T09:13:54.860Z,17.00
2017-10-26T09:16:21.954Z,16.80
2017-10-26T09:18:48.207Z,16.80
2017-10-26T09:21:14.418Z,16.50
2017-10-26T09:23:40.643Z,16.10
2017-10-26T09:26:06.863Z,15.80
2017-10-26T09:28:33.166Z,15.50
2017-10-26T09:30:59.375Z,15.20
2017-10-26T09:33:31.516Z,15.30
2017-10-26T09:45:37.783Z,16.10
2017-10-26T09:48:04.387Z,16.00
2017-10-26T09:50:30.603Z,16.10
2017-10-26T09:52:57.554Z,16.80
2017-10-26T09:55:23.855Z,17.80
2017-10-26T09:57:50.716Z,17.90
2017-10-26T10:00:16.946Z,18.30
2017-10-26T10:02:43.142Z,18.70
2017-10-26T10:05:09.379Z,18.70
2017-10-26T10:07:35.601Z,18.60
2017-10-26T10:10:01.774Z,18.60
2017-10-26T10:12:28.002Z,18.80
2017-10-26T10:14:54.656Z,18.60
2017-10-26T10:17:20.857Z,18.60
2017-10-26T10:19:47.028Z,19.10
2017-10-26T10:22:13.194Z,19.30
2017-10-26T10:24:39.399Z,19.30
2017-10-26T10:27:05.623Z,19.40
2017-10-26T10:29:31.845Z,19.40
2017-10-26T10:31:58.114Z,19.40
2017-10-26T10:34:24.361Z,19.40
2017-10-26T10:36:50.606Z,19.40
2017-10-26T10:39:17.593Z,19.30
2017-10-26T10:41:43.798Z,19.10
2017-10-26T10:44:10.054Z,19.00
2017-10-26T10:46:36.248Z,19.00
2017-10-26T10:49:02.501Z,18.60
2017-10-26T10:51:28.813Z,18.40
2017-10-26T10:53:55.453Z,18.00
2017-10-26T10:56:21.684Z,18.00
2017-10-26T10:58:47.963Z,18.30
2017-10-26T11:01:14.162Z,18.30
2017-10-26T11:03:42.203Z,19.00
2017-10-26T11:06:08.620Z,20.10
2017-10-26T11:08:34.839Z,20.70
2017-10-26T11:11:01.039Z,21.60
2017-10-26T11:13:27.328Z,21.60
2017-10-26T11:15:53.546Z,21.40
2017-10-26T11:18:19.871Z,21.10
2017-10-26T11:20:47.076Z,21.10
2017-10-26T11:23:13.314Z,20.30
2017-10-26T11:25:39.548Z,19.90
2017-10-26T11:28:05.759Z,19.50
2017-10-26T11:30:31.985Z,19.10
2017-10-26T11:32:58.255Z,18.70
2017-10-26T11:35:24.843Z,18.40
2017-10-26T11:37:52.035Z,18.10
2017-10-26T11:40:18.276Z,17.70
2017-10-26T11:42:44.863Z,17.60
2017-10-26T11:45:11.095Z,17.50
2017-10-26T11:47:37.321Z,17.50
2017-10-26T11:50:03.937Z,17.50
2017-10-26T11:52:30.210Z,17.60
2017-10-26T11:54:59.029Z,17.70
2017-10-26T11:57:25.254Z,17.80
2017-10-26T11:59:51.506Z,17.80
2017-10-26T12:02:18.322Z,17.80
2017-10-26T12:04:44.574Z,17.80
2017-10-26T12:07:12.957Z,17.70
2017-10-26T12:09:39.180Z,17.70
2017-10-26T12:12:05.368Z,17.80
2017-10-26T12:14:31.632Z,17.80
2017-10-26T12:16:57.849Z,18.00
2017-10-26T12:19:24.994Z,18.50
2017-10-26T12:21:51.953Z,19.00
2017-10-26T12:24:18.567Z,19.70
2017-10-26T12:26:44.828Z,20.20
2017-10-26T12:29:11.056Z,20.90
2017-10-26T12:31:37.322Z,21.00
2017-10-26T12:34:03.517Z,20.90
2017-10-26T12:36:30.127Z,20.60
2017-10-26T12:38:56.739Z,20.00
2017-10-26T12:41:23.843Z,19.50
2017-10-26T12:43:50.592Z,19.10
2017-10-26T12:46:16.879Z,18.80
2017-10-26T12:48:54.713Z,18.60
2017-10-26T12:51:20.946Z,18.70
2017-10-26T12:53:47.191Z,18.60
2017-10-26T12:56:13.854Z,18.50
2017-10-26T12:58:40.082Z,18.40
2017-10-26T13:01:06.286Z,18.20
2017-10-26T13:03:32.494Z,18.10
2017-10-26T13:05:58.733Z,18.00
2017-10-26T13:08:25.115Z,18.00
2017-10-26T13:10:51.345Z,17.80
2017-10-26T13:13:17.640Z,17.70
2017-10-26T13:15:43.942Z,17.70
2017-10-26T13:18:10.837Z,17.70
2017-10-26T13:20:37.566Z,17.90
2017-10-26T13:23:04.681Z,18.10
2017-10-26T13:25:31.014Z,18.20
2017-10-26T13:27:57.728Z,18.30
2017-10-26T13:30:23.971Z,18.40
2017-10-26T13:32:50.261Z,18.20
2017-10-26T13:35:16.507Z,18.00
2017-10-26T13:37:42.755Z,17.90
2017-10-26T13:40:09.422Z,17.90
2017-10-26T13:42:37.002Z,17.90
2017-10-26T13:45:03.316Z,18.00
2017-10-26T13:47:29.575Z,18.10
2017-10-26T13:49:55.807Z,18.10
2017-10-26T13:52:21.993Z,18.20
2017-10-26T13:54:48.285Z,18.20
2017-10-26T13:57:14.489Z,18.20
2017-10-26T13:59:40.686Z,18.30
2017-10-26T14:02:06.911Z,18.10
2017-10-26T14:04:33.108Z,18.10
2017-10-26T14:06:59.398Z,18.00
2017-10-26T14:09:25.999Z,18.00
2017-10-26T14:11:52.239Z,18.00
2017-10-26T14:14:18.473Z,18.00
2017-10-26T14:16:44.756Z,17.80
2017-10-26T14:19:10.956Z,17.70
2017-10-26T14:21:37.490Z,17.50
2017-10-26T14:24:03.734Z,17.40
2017-10-26T14:26:29.951Z,17.40
2017-10-26T14:28:56.215Z,17.40
2017-10-26T14:31:22.536Z,17.30
2017-10-26T14:33:48.787Z,17.30
2017-10-26T14:36:14.982Z,17.20
2017-10-26T14:38:41.187Z,17.20
2017-10-26T14:41:08.161Z,17.20
2017-10-26T14:43:34.943Z,17.20
2017-10-26T14:46:01.634Z,17.10
2017-10-26T14:48:28.178Z,17.20
2017-10-26T14:50:55.038Z,17.10
2017-10-26T14:53:21.257Z,17.10
2017-10-26T14:55:48.374Z,17.10
2017-10-26T14:58:14.624Z,17.10
2017-10-26T15:00:41.301Z,17.10
2017-10-26T15:03:09.311Z,17.10
2017-10-26T15:05:35.522Z,17.10
2017-10-26T15:08:02.478Z,17.20
2017-10-26T15:10:28.748Z,17.30
2017-10-26T15:12:54.920Z,17.40
2017-10-26T15:15:21.118Z,17.30
2017-10-26T15:17:47.728Z,17.20
2017-10-26T15:20:14.088Z,17.00
2017-10-26T15:22:40.252Z,17.00
2017-10-26T15:25:06.635Z,17.00
2017-10-26T15:27:32.938Z,17.00
2017-10-26T15:29:59.205Z,17.00
2017-10-26T15:32:26.147Z,17.00
2017-10-26T15:34:52.374Z,16.90
2017-10-26T15:37:18.635Z,16.90
2017-10-26T15:39:45.877Z,17.00
2017-10-26T15:42:12.353Z,17.00
2017-10-26T15:44:39.775Z,16.90
2017-10-26T15:47:06.626Z,16.90
2017-10-26T15:49:33.283Z,16.90
2017-10-26T15:52:01.846Z,16.90
2017-10-26T15:54:28.885Z,16.90
2017-10-26T15:56:55.640Z,16.90
2017-10-26T15:59:21.888Z,16.90
2017-10-26T16:01:49.942Z,16.90
2017-10-26T16:04:16.491Z,16.80
2017-10-26T16:06:43.404Z,16.90
2017-10-26T16:09:10.629Z,16.80
2017-10-26T16:11:38.153Z,16.70
2017-10-26T16:14:05.484Z,16.60
2017-10-26T16:16:32.212Z,16.50
2017-10-26T16:18:59.334Z,16.40
2017-10-26T16:21:26.114Z,16.30
2017-10-26T16:23:52.692Z,16.20
2017-10-26T16:26:22.378Z,16.20
2017-10-26T16:28:49.159Z,16.20
2017-10-26T16:31:16.243Z,16.10
2017-10-26T16:33:42.979Z,16.00
2017-10-26T16:36:10.667Z,16.00
2017-10-26T16:38:40.842Z,15.90
2017-10-26T16:41:07.448Z,15.90
2017-10-26T16:43:34.601Z,15.90
2017-10-26T16:46:01.442Z,15.90
2017-10-26T16:48:28.382Z,15.90
2017-10-26T16:50:54.695Z,15.80
2017-10-26T16:53:20.916Z,15.80
2017-10-26T16:55:47.189Z,15.70
2017-10-26T16:58:14.904Z,15.80
2017-10-26T17:00:45.080Z,15.70
2017-10-26T17:03:11.396Z,15.70
2017-10-26T17:05:38.446Z,15.70
2017-10-26T17:17:44.732Z,15.60
2017-10-26T17:20:10.908Z,15.50
2017-10-26T17:22:37.134Z,15.40
2017-10-26T17:25:06.169Z,15.40
2017-10-26T17:27:32.431Z,15.30
2017-10-26T17:29:58.674Z,15.40
2017-10-26T17:32:26.498Z,15.30
2017-10-26T17:34:53.479Z,15.50
2017-10-26T17:37:19.681Z,15.70
2017-10-26T17:39:46.301Z,15.60
2017-10-26T17:42:13.269Z,15.60
2017-10-26T17:44:40.578Z,15.50
2017-10-26T17:47:06.971Z,15.40
2017-10-26T17:49:33.670Z,15.30
2017-10-26T17:52:00.653Z,15.20
2017-10-26T17:54:27.383Z,15.10
2017-10-26T17:56:54.294Z,15.10
2017-10-26T17:59:22.151Z,15.00
2017-10-26T18:01:49.400Z,15.00
2017-10-26T18:04:17.307Z,14.90
2017-10-26T18:06:44.541Z,14.90
2017-10-26T18:09:11.241Z,14.90
2017-10-26T18:11:39.718Z,14.90
2017-10-26T18:14:06.118Z,15.00
2017-10-26T18:16:33.200Z,15.00
2017-10-26T18:18:59.700Z,14.90
2017-10-26T18:21:25.978Z,14.90
2017-10-26T18:23:52.914Z,14.90
2017-10-26T18:26:19.366Z,14.90
2017-10-26T18:28:46.206Z,14.80
2017-10-26T18:31:12.440Z,14.70
2017-10-26T18:33:39.243Z,14.60
2017-10-26T18:36:05.495Z,14.50
2017-10-26T18:38:32.814Z,14.50
2017-10-26T18:40:59.237Z,14.50
2017-10-26T18:43:26.217Z,14.60
2017-10-26T18:45:52.946Z,14.50
2017-10-26T18:48:19.177Z,14.50
2017-10-26T18:50:45.511Z,14.50
2017-10-26T18:53:12.729Z,14.40
2017-10-26T18:55:39.437Z,14.40
2017-10-26T18:58:06.367Z,14.40
2017-10-26T19:00:33.600Z,14.40
2017-10-26T19:03:00.594Z,14.40
2017-10-26T19:05:28.064Z,14.40
2017-10-26T19:07:55.202Z,14.40
2017-10-26T19:10:21.687Z,14.40
2017-10-26T19:12:48.111Z,14.40
2017-10-26T19:15:14.562Z,14.40
2017-10-26T19:17:41.040Z,14.40
2017-10-26T19:20:07.551Z,14.30
2017-10-26T19:22:34.919Z,14.30
2017-10-26T19:25:02.219Z,14.30
2017-10-26T19:27:28.547Z,14.30
2017-10-26T19:29:55.504Z,14.30
2017-10-26T19:32:24.817Z,14.30
2017-10-26T19:34:52.304Z,14.20
2017-10-26T19:37:18.687Z,14.30
2017-10-26T19:39:48.763Z,14.20
2017-10-26T19:42:15.482Z,14.30
2017-10-26T19:44:45.683Z,14.40
2017-10-26T19:47:11.908Z,14.40
2017-10-26T19:49:38.219Z,14.30
2017-10-26T19:52:04.672Z,14.20
2017-10-26T19:54:32.104Z,14.20
2017-10-26T19:56:58.451Z,14.10
2017-10-26T19:59:25.599Z,14.10
2017-10-26T20:01:51.826Z,14.20
2017-10-26T20:04:19.998Z,14.30
2017-10-26T20:06:46.287Z,14.20
2017-10-26T20:09:12.881Z,14.20
2017-10-26T20:11:39.294Z,14.10
2017-10-26T20:14:06.563Z,14.00
2017-10-26T20:16:33.898Z,14.00
2017-10-26T20:19:07.871Z,14.00
2017-10-26T20:21:34.095Z,14.10
2017-10-26T20:24:01.803Z,14.10
2017-10-26T20:26:28.823Z,14.20
2017-10-26T20:28:56.364Z,14.10
2017-10-26T20:31:22.780Z,14.20
2017-10-26T20:33:49.062Z,14.10
2017-10-26T20:36:15.404Z,14.10
2017-10-26T20:38:41.675Z,14.00
2017-10-26T20:41:09.280Z,13.90
2017-10-26T20:43:36.516Z,13.80
2017-10-26T20:46:02.731Z,13.70
2017-10-26T20:48:29.395Z,13.70
2017-10-26T20:51:02.358Z,13.70
2017-10-26T20:53:34.504Z,13.70
2017-10-26T20:56:06.767Z,13.50
2017-10-26T21:01:40.834Z,13.50
2017-10-26T21:04:14.133Z,13.50
2017-10-26T21:06:41.692Z,13.50
2017-10-26T21:09:17.146Z,13.50
2017-10-26T21:11:50.089Z,13.60
2017-10-26T21:14:22.279Z,13.50
2017-10-26T21:16:49.226Z,13.50
2017-10-26T21:19:18.058Z,13.60
2017-10-26T21:21:44.276Z,13.60
2017-10-26T21:24:10.647Z,13.60
2017-10-26T21:26:36.937Z,13.70
2017-10-26T21:29:03.225Z,13.70
2017-10-26T21:31:29.451Z,13.80
2017-10-26T21:33:56.388Z,13.80
2017-10-26T21:36:22.974Z,13.90
2017-10-26T21:38:49.194Z,13.80
2017-10-26T21:41:15.389Z,13.80
2017-10-26T21:43:41.908Z,13.90
2017-10-26T21:46:08.464Z,13.80
2017-10-26T21:48:34.644Z,13.90
2017-10-26T21:51:01.003Z,13.90
2017-10-26T21:53:27.970Z,13.80
2017-10-26T21:55:54.161Z,13.80
2017-10-26T21:58:20.311Z,13.80
2017-10-26T22:00:47.259Z,13.90
2017-10-26T22:03:13.438Z,14.00
2017-10-26T22:05:39.624Z,14.00
2017-10-26T22:08:05.858Z,14.00
2017-10-26T22:10:32.796Z,14.00
2017-10-26T22:12:59.011Z,14.10
2017-10-26T22:15:25.306Z,14.10
2017-10-26T22:17:51.474Z,14.10
2017-10-26T22:20:17.702Z,14.10
2017-10-26T22:22:43.927Z,14.10
2017-10-26T22:25:10.946Z,14.10
2017-10-26T22:27:37.566Z,14.10
2017-10-26T22:30:04.184Z,14.00
2017-10-26T22:32:30.404Z,13.90
2017-10-26T22:34:56.574Z,13.90
2017-10-26T22:37:22.783Z,13.90
2017-10-26T22:39:49.873Z,13.90
2017-10-26T22:42:16.051Z,13.90
2017-10-26T22:44:42.252Z,13.80
2017-10-26T22:47:08.433Z,13.70
2017-10-26T22:49:34.645Z,13.70
2017-10-26T22:52:01.558Z,13.70
2017-10-26T22:54:27.785Z,13.70
2017-10-26T22:56:54.699Z,13.60
2017-10-26T22:59:20.937Z,13.60
2017-10-26T23:01:47.146Z,13.50
2017-10-26T23:04:13.367Z,13.50
2017-10-26T23:06:39.597Z,13.50
2017-10-26T23:09:05.809Z,13.50
2017-10-26T23:11:32.028Z,13.50
2017-10-26T23:13:58.207Z,13.50
2017-10-26T23:16:24.474Z,13.40
2017-10-26T23:18:50.690Z,13.40
2017-10-26T23:21:16.932Z,13.40
2017-10-26T23:23:43.111Z,13.40
2017-10-26T23:26:09.348Z,13.40
2017-10-26T23:28:35.569Z,13.40
2017-10-26T23:31:02.133Z,13.30
2017-10-26T23:33:29.073Z,13.30
2017-10-26T23:35:55.248Z,13.20
2017-10-26T23:38:22.197Z,13.10
2017-10-26T23:40:48.388Z,13.00
2017-10-26T23:43:14.582Z,13.00
2017-10-26T23:45:40.783Z,13.00
2017-10-26T23:48:06.988Z,13.00
2017-10-26T23:50:33.179Z,13.00
2017-10-26T23:52:59.339Z,13.00
2017-10-26T23:55:25.518Z,13.00
